Time;durP1;ratioP1;P1;durP2;ratioP2;P2;SDS_P1;SDS_P2;PMS_P1;PMS_P2;Temp;Humidity;BMP_temperature;BMP_pressure;BME280_temperature;BME280_humidity;BME280_pressure;Samples;Min_cycle;Max_cycle;Signal;HPM_P1;HPM_P2
2021/12/02 00:01:17;;;;;;;11.30;1.65;;;3.50;99.90;;;;;;5113628;28;20043;-75
2021/12/02 00:03:43;;;;;;;9.38;1.27;;;3.40;99.90;;;;;;5114848;28;20066;-75
2021/12/02 00:06:13;;;;;;;6.20;1.35;;;3.40;99.90;;;;;;5114607;28;20122;-75
2021/12/02 00:08:40;;;;;;;7.82;1.70;;;3.40;99.90;;;;;;5113307;28;20122;-74
2021/12/02 00:11:06;;;;;;;7.15;1.00;;;3.40;99.90;;;;;;5093944;28;20040;-75
2021/12/02 00:14:09;;;;;;;4.70;1.10;;;3.40;99.90;;;;;;5110963;28;20040;-74
2021/12/02 00:16:39;;;;;;;8.55;1.17;;;4.10;99.90;;;;;;5090166;28;20051;-74
2021/12/02 00:21:53;;;;;;;7.22;1.20;;;3.60;99.90;;;;;;5114431;28;20060;-75
2021/12/02 00:24:20;;;;;;;4.18;0.90;;;4.20;99.90;;;;;;5113896;28;20405;-74
2021/12/02 00:26:51;;;;;;;13.23;1.13;;;3.60;99.90;;;;;;5114145;28;20051;-74
2021/12/02 00:29:19;;;;;;;6.80;1.27;;;3.70;99.90;;;;;;5113105;28;20058;-75
2021/12/02 00:31:47;;;;;;;5.15;1.98;;;3.60;99.90;;;;;;5114544;28;20048;-75
2021/12/02 00:34:13;;;;;;;4.57;0.90;;;4.30;99.90;;;;;;5114177;28;20047;-75
2021/12/02 00:36:41;;;;;;;9.88;1.48;;;3.50;99.90;;;;;;5113470;28;20036;-75
2021/12/02 00:39:13;;;;;;;6.13;1.23;;;3.50;99.90;;;;;;5113578;28;20039;-75
2021/12/02 00:41:40;;;;;;;6.15;1.05;;;3.40;99.90;;;;;;5114843;28;20047;-75
2021/12/02 00:44:06;;;;;;;5.20;2.00;;;3.30;99.90;;;;;;5112650;28;20071;-75
2021/12/02 00:46:33;;;;;;;8.45;1.90;;;3.30;99.90;;;;;;5113830;28;20367;-75
2021/12/02 00:49:03;;;;;;;10.05;1.00;;;4.10;99.90;;;;;;5112723;28;20056;-75
2021/12/02 00:51:30;;;;;;;5.35;0.95;;;3.50;99.90;;;;;;5113669;28;20123;-75
2021/12/02 00:54:03;;;;;;;13.45;1.40;;;3.20;99.90;;;;;;5113372;28;20083;-74
2021/12/02 00:56:29;;;;;;;3.08;1.30;;;3.20;99.90;;;;;;5114148;28;20050;-74
2021/12/02 00:58:55;;;;;;;12.80;2.42;;;3.30;99.90;;;;;;5130505;27;20540;-74
2021/12/02 01:01:24;;;;;;;7.78;1.27;;;3.40;99.90;;;;;;5130433;27;20051;-74
2021/12/02 01:03:54;;;;;;;5.45;1.40;;;3.30;99.90;;;;;;5113839;28;20423;-74
2021/12/02 01:06:20;;;;;;;8.63;1.40;;;3.60;99.90;;;;;;5113291;28;20660;-75
2021/12/02 01:08:46;;;;;;;8.75;2.15;;;3.30;99.90;;;;;;5114236;28;20042;-75
2021/12/02 01:11:13;;;;;;;5.13;1.00;;;3.40;99.90;;;;;;5113596;28;20047;-75
2021/12/02 01:13:39;;;;;;;6.85;0.82;;;3.40;99.90;;;;;;5114590;28;20123;-74
2021/12/02 01:16:05;;;;;;;7.05;0.93;;;3.40;99.90;;;;;;5114419;28;20122;-74
2021/12/02 01:18:31;;;;;;;1.80;0.60;;;3.40;99.90;;;;;;5111493;28;20039;-74
2021/12/02 01:21:00;;;;;;;3.38;0.70;;;3.50;99.90;;;;;;5114378;28;20047;-73
2021/12/02 01:23:30;;;;;;;6.20;1.30;;;3.70;99.90;;;;;;5114236;28;20074;-73
2021/12/02 01:26:07;;;;;;;3.63;1.05;;;3.80;99.90;;;;;;5112011;28;20071;-73
2021/12/02 01:28:34;;;;;;;6.68;0.95;;;3.70;99.90;;;;;;5113037;28;20538;-73
2021/12/02 01:31:00;;;;;;;7.65;1.10;;;4.20;99.90;;;;;;5112973;28;20095;-73
2021/12/02 01:33:27;;;;;;;4.30;1.00;;;3.70;99.90;;;;;;5112515;28;20517;-73
2021/12/02 01:36:02;;;;;;;5.63;0.77;;;3.60;99.90;;;;;;5112658;28;20031;-74
2021/12/02 01:38:29;;;;;;;2.78;0.65;;;3.60;99.90;;;;;;5112288;28;20043;-74
2021/12/02 01:40:56;;;;;;;5.10;1.40;;;3.50;99.90;;;;;;5112317;28;20052;-74
2021/12/02 01:43:33;;;;;;;4.22;0.90;;;3.40;99.90;;;;;;5112415;28;20059;-74
2021/12/02 01:45:58;;;;;;;8.07;0.90;;;3.40;99.90;;;;;;5111996;28;20506;-74
2021/12/02 01:48:25;;;;;;;7.28;0.90;;;3.30;99.90;;;;;;5113622;28;20040;-74
2021/12/02 01:51:05;;;;;;;14.13;2.72;;;3.40;99.90;;;;;;5112628;28;20117;-74
2021/12/02 01:53:38;;;;;;;2.67;1.08;;;3.30;99.90;;;;;;5112042;28;20399;-74
2021/12/02 01:56:14;;;;;;;4.35;0.77;;;3.10;99.90;;;;;;5113026;28;20097;-74
2021/12/02 01:58:46;;;;;;;4.22;0.70;;;3.10;99.90;;;;;;5112648;28;20051;-74
2021/12/02 02:01:19;;;;;;;7.93;1.20;;;3.00;99.90;;;;;;5111643;28;20062;-74
2021/12/02 02:03:46;;;;;;;4.95;0.85;;;3.00;99.90;;;;;;5113927;28;20093;-75
2021/12/02 02:06:13;;;;;;;8.25;1.25;;;3.10;99.90;;;;;;5112913;28;20096;-74
2021/12/02 02:08:44;;;;;;;6.28;0.98;;;3.60;99.90;;;;;;5113680;28;20140;-74
2021/12/02 02:11:11;;;;;;;6.28;0.80;;;2.80;99.90;;;;;;5093319;28;20054;-74
2021/12/02 02:13:40;;;;;;;1.13;0.85;;;2.80;99.90;;;;;;5092497;28;20048;-75
2021/12/02 02:16:06;;;;;;;1.85;0.60;;;2.70;99.90;;;;;;5091988;28;20109;-74
2021/12/02 02:18:32;;;;;;;6.28;0.90;;;2.80;99.90;;;;;;5105660;28;20039;-74
2021/12/02 02:21:08;;;;;;;3.08;0.65;;;3.50;99.90;;;;;;5111835;28;20036;-74
2021/12/02 02:23:39;;;;;;;9.43;1.60;;;2.70;99.90;;;;;;5112445;28;20105;-74
2021/12/02 02:26:06;;;;;;;4.63;0.68;;;3.20;99.90;;;;;;5129303;28;20050;-74
2021/12/02 02:28:33;;;;;;;5.65;0.90;;;3.40;99.90;;;;;;5112559;28;20058;-74
2021/12/02 02:30:58;;;;;;;10.60;2.10;;;2.80;99.90;;;;;;5113509;28;20105;-74
2021/12/02 02:33:25;;;;;;;4.80;0.80;;;2.90;99.90;;;;;;5113559;28;20039;-74
2021/12/02 02:35:51;;;;;;;5.07;1.20;;;3.20;99.90;;;;;;5111294;28;20495;-74
2021/12/02 02:38:17;;;;;;;6.07;0.75;;;2.40;99.90;;;;;;5113551;28;20083;-74
2021/12/02 02:40:47;;;;;;;20.05;2.03;;;2.40;99.90;;;;;;5113066;28;20073;-74
2021/12/02 02:43:21;;;;;;;6.88;1.38;;;2.30;99.90;;;;;;5112858;28;20044;-74
2021/12/02 02:45:47;;;;;;;7.43;1.15;;;2.30;99.90;;;;;;5113446;28;20044;-74
2021/12/02 02:48:13;;;;;;;6.88;0.75;;;2.70;99.90;;;;;;5113448;28;20100;-74
2021/12/02 02:50:39;;;;;;;6.20;1.00;;;2.30;99.90;;;;;;5111734;28;20123;-74
2021/12/02 02:53:16;;;;;;;10.38;0.90;;;2.20;99.90;;;;;;5113422;28;20092;-74
2021/12/02 02:55:49;;;;;;;4.97;0.80;;;2.20;99.90;;;;;;5110345;28;20043;-74
2021/12/02 02:58:29;;;;;;;3.78;0.50;;;2.20;99.90;;;;;;5112088;28;20043;-74
2021/12/02 03:01:19;;;;;;;5.15;1.05;;;2.10;99.90;;;;;;5112021;28;20056;-74
2021/12/02 03:09:01;;;;;;;5.55;0.65;;;2.00;99.90;;;;;;5116025;28;20112;-74
2021/12/02 03:11:36;;;;;;;9.30;1.10;;;2.10;99.90;;;;;;5115984;28;20036;-74
2021/12/02 03:14:10;;;;;;;4.10;0.65;;;2.10;99.90;;;;;;5115621;28;20047;-74
2021/12/02 03:16:45;;;;;;;7.82;1.65;;;2.10;99.90;;;;;;5131908;27;20043;-73
2021/12/02 03:19:28;;;;;;;8.70;0.80;;;2.60;99.90;;;;;;5115560;28;20078;-73
2021/12/02 03:21:56;;;;;;;5.40;0.68;;;2.30;99.90;;;;;;5116518;28;20051;-74
2021/12/02 03:24:23;;;;;;;4.30;1.00;;;2.40;99.90;;;;;;5115577;28;20074;-74
2021/12/02 03:26:49;;;;;;;4.55;0.70;;;2.50;99.90;;;;;;5115275;28;20475;-74
2021/12/02 03:29:15;;;;;;;11.98;0.95;;;2.50;99.90;;;;;;5115142;28;20061;-74
2021/12/02 03:31:41;;;;;;;5.05;0.55;;;2.60;99.90;;;;;;5115620;28;20376;-74
2021/12/02 03:34:08;;;;;;;5.80;0.80;;;2.60;99.90;;;;;;5115252;28;20403;-74
2021/12/02 03:36:35;;;;;;;12.05;0.68;;;2.60;99.90;;;;;;5116449;28;20047;-74
2021/12/02 03:39:02;;;;;;;4.70;0.75;;;2.60;99.90;;;;;;5115224;28;20043;-74
2021/12/02 03:41:28;;;;;;;6.15;0.63;;;2.50;99.90;;;;;;5116417;28;20055;-74
2021/12/02 03:43:53;;;;;;;2.72;0.85;;;2.50;99.90;;;;;;5114913;28;20407;-74
2021/12/02 03:46:24;;;;;;;5.60;0.60;;;2.70;99.90;;;;;;5115423;28;20062;-75
2021/12/02 03:48:53;;;;;;;8.27;0.70;;;2.50;99.90;;;;;;5114835;28;20060;-74
2021/12/02 03:51:19;;;;;;;3.72;0.50;;;2.40;99.90;;;;;;5115996;27;20050;-74
2021/12/02 03:53:46;;;;;;;4.50;0.40;;;2.30;99.90;;;;;;5115034;28;20044;-74
2021/12/02 03:56:12;;;;;;;6.57;0.50;;;2.30;99.90;;;;;;5114712;28;20046;-74
2021/12/02 03:58:42;;;;;;;4.10;0.45;;;2.20;99.90;;;;;;5114710;28;20506;-74
2021/12/02 04:01:08;;;;;;;8.43;0.77;;;3.00;99.90;;;;;;5115648;28;20459;-74
2021/12/02 04:03:35;;;;;;;3.88;0.40;;;2.00;99.90;;;;;;5115583;28;20051;-74
2021/12/02 04:06:01;;;;;;;3.90;0.60;;;2.00;99.90;;;;;;5114731;28;20100;-74
2021/12/02 04:08:49;;;;;;;3.08;0.32;;;2.00;99.90;;;;;;5131712;27;20180;-74
2021/12/02 04:11:25;;;;;;;5.32;0.55;;;1.90;99.90;;;;;;5115915;28;20039;-74
2021/12/02 04:16:21;;;;;;;4.35;0.73;;;2.40;99.90;;;;;;5115656;28;20059;-74
2021/12/02 04:18:47;;;;;;;1.60;0.30;;;2.30;99.90;;;;;;5115516;28;20058;-74
2021/12/02 04:21:13;;;;;;;5.45;0.38;;;1.80;99.90;;;;;;5114695;28;20039;-74
2021/12/02 04:23:39;;;;;;;2.25;0.38;;;1.80;99.90;;;;;;5115399;28;20192;-74
2021/12/02 04:26:05;;;;;;;5.05;0.52;;;2.00;99.90;;;;;;5114997;28;20445;-74
2021/12/02 04:28:31;;;;;;;2.30;0.47;;;2.00;99.90;;;;;;5096057;28;20085;-74
2021/12/02 04:30:57;;;;;;;1.13;0.30;;;2.10;99.90;;;;;;5114052;28;20048;-73
2021/12/02 04:33:23;;;;;;;1.55;0.40;;;2.10;99.90;;;;;;5113675;28;20039;-74
2021/12/02 04:35:49;;;;;;;1.30;0.30;;;2.20;99.90;;;;;;5114468;27;20122;-73
2021/12/02 04:38:14;;;;;;;4.07;0.43;;;2.20;99.90;;;;;;5115106;28;20058;-74
2021/12/02 04:40:41;;;;;;;3.42;0.35;;;2.30;99.90;;;;;;5114759;27;20043;-73
2021/12/02 04:43:08;;;;;;;3.63;0.30;;;2.30;99.90;;;;;;5113372;28;20121;-73
2021/12/02 04:45:34;;;;;;;1.02;0.35;;;2.40;99.90;;;;;;5115097;28;20089;-74
2021/12/02 04:48:00;;;;;;;0.70;0.52;;;2.40;99.90;;;;;;5114220;28;20047;-74
2021/12/02 04:50:26;;;;;;;2.38;0.73;;;2.30;99.90;;;;;;5115516;28;20079;-74
2021/12/02 04:52:53;;;;;;;3.95;1.02;;;3.00;99.90;;;;;;5114899;28;20081;-74
2021/12/02 04:55:19;;;;;;;1.13;0.30;;;2.80;99.90;;;;;;5113702;28;20506;-74
2021/12/02 04:57:46;;;;;;;1.63;0.38;;;2.30;99.90;;;;;;5114753;28;20471;-74
2021/12/02 05:00:12;;;;;;;0.30;0.30;;;2.10;99.90;;;;;;5113391;28;20047;-74
2021/12/02 05:02:40;;;;;;;2.63;0.38;;;2.10;99.90;;;;;;5113869;28;20390;-74
2021/12/02 05:05:07;;;;;;;2.03;0.30;;;2.00;99.90;;;;;;5114602;28;20092;-74
2021/12/02 05:07:33;;;;;;;4.32;0.93;;;2.00;99.90;;;;;;5113543;28;20084;-74
2021/12/02 05:09:59;;;;;;;0.75;0.30;;;2.00;99.90;;;;;;5113578;28;20432;-74
2021/12/02 05:12:25;;;;;;;1.17;0.32;;;2.10;99.90;;;;;;5112941;28;20185;-74
2021/12/02 05:14:51;;;;;;;3.10;0.30;;;2.00;99.90;;;;;;5113027;28;20134;-74
2021/12/02 05:17:16;;;;;;;0.82;0.52;;;2.10;99.90;;;;;;5112263;28;20039;-75
2021/12/02 05:19:42;;;;;;;7.13;0.40;;;2.10;99.90;;;;;;5114659;28;20040;-75
2021/12/02 05:22:08;;;;;;;1.58;0.73;;;2.20;99.90;;;;;;5114239;28;20048;-74
2021/12/02 05:24:34;;;;;;;1.70;0.40;;;2.20;99.90;;;;;;5113237;28;20046;-74
2021/12/02 05:27:00;;;;;;;5.68;0.65;;;2.20;99.90;;;;;;5114361;28;20403;-74
2021/12/02 05:29:26;;;;;;;5.10;0.30;;;2.20;99.90;;;;;;5113883;28;20035;-74
2021/12/02 05:31:52;;;;;;;3.83;0.50;;;2.30;99.90;;;;;;5112107;28;20471;-74
2021/12/02 05:34:17;;;;;;;2.22;0.20;;;2.30;99.90;;;;;;5113036;28;20174;-75
2021/12/02 05:36:43;;;;;;;4.25;0.40;;;2.40;99.90;;;;;;5112839;28;20398;-75
2021/12/02 05:39:09;;;;;;;3.25;0.50;;;2.30;99.90;;;;;;5111734;28;20114;-74
2021/12/02 05:41:35;;;;;;;10.27;0.40;;;2.30;99.90;;;;;;5112797;28;20047;-74
2021/12/02 05:44:01;;;;;;;1.95;0.40;;;2.40;99.90;;;;;;5112906;28;20075;-75
2021/12/02 05:46:27;;;;;;;4.70;0.52;;;2.60;99.90;;;;;;5112147;28;20087;-75
2021/12/02 05:48:53;;;;;;;3.67;0.60;;;2.60;99.90;;;;;;5112687;28;20050;-75
2021/12/02 05:51:19;;;;;;;5.32;0.40;;;2.80;99.90;;;;;;5112148;28;20044;-75
2021/12/02 05:53:45;;;;;;;2.65;0.47;;;2.50;99.90;;;;;;5113796;28;20126;-75
2021/12/02 05:56:11;;;;;;;4.53;0.50;;;2.80;99.90;;;;;;5112911;28;20127;-75
2021/12/02 05:58:37;;;;;;;3.33;1.05;;;2.40;99.90;;;;;;5113125;28;20099;-75
2021/12/02 06:01:03;;;;;;;2.33;0.28;;;2.40;99.90;;;;;;5113839;28;20043;-75
2021/12/02 06:03:29;;;;;;;2.75;0.40;;;2.40;99.90;;;;;;5113805;28;20048;-75
2021/12/02 06:05:55;;;;;;;3.53;0.30;;;2.30;99.90;;;;;;5112002;28;20052;-75
2021/12/02 06:08:20;;;;;;;1.75;0.20;;;2.60;99.90;;;;;;5113827;28;20043;-74
2021/12/02 06:10:46;;;;;;;6.95;0.45;;;2.50;99.90;;;;;;5113189;28;20403;-75
2021/12/02 06:13:12;;;;;;;4.00;0.30;;;2.30;99.90;;;;;;5111958;28;20108;-74
2021/12/02 06:15:38;;;;;;;3.72;0.30;;;2.20;99.90;;;;;;5113582;28;20096;-74
2021/12/02 06:18:03;;;;;;;3.10;0.40;;;2.20;99.90;;;;;;5095503;28;20052;-74
2021/12/02 06:20:30;;;;;;;5.00;0.50;;;2.30;99.90;;;;;;5111563;28;20044;-74
2021/12/02 06:22:55;;;;;;;1.17;0.32;;;2.30;99.90;;;;;;5112254;28;20415;-74
2021/12/02 06:27:53;;;;;;;0.77;0.40;;;2.30;99.90;;;;;;5111663;28;20152;-74
2021/12/02 06:30:21;;;;;;;3.33;0.40;;;2.30;99.90;;;;;;5113776;28;20093;-73
2021/12/02 06:32:47;;;;;;;4.28;0.52;;;2.30;99.90;;;;;;5112317;28;20059;-73
2021/12/02 06:35:13;;;;;;;3.03;0.43;;;2.30;99.90;;;;;;5112808;28;20044;-73
2021/12/02 06:37:39;;;;;;;3.47;0.40;;;2.40;99.90;;;;;;5113444;28;20437;-73
2021/12/02 06:40:06;;;;;;;1.23;0.35;;;2.40;99.90;;;;;;5122644;27;20039;-75
2021/12/02 06:42:32;;;;;;;3.00;0.50;;;2.40;99.90;;;;;;5135923;27;20047;-75
2021/12/02 06:44:59;;;;;;;5.55;0.30;;;2.30;99.90;;;;;;5138020;27;20041;-75
2021/12/02 06:47:35;;;;;;;6.18;0.60;;;2.30;99.90;;;;;;5137944;27;20047;-74
2021/12/02 06:50:02;;;;;;;5.07;0.55;;;2.60;99.90;;;;;;5136927;27;20490;-75
2021/12/02 06:52:29;;;;;;;4.75;0.63;;;3.10;99.90;;;;;;5137924;27;20062;-75
2021/12/02 06:54:55;;;;;;;3.08;0.40;;;2.20;99.90;;;;;;5124607;27;20048;-75
2021/12/02 06:57:21;;;;;;;6.95;0.47;;;2.20;99.90;;;;;;5117229;28;20148;-75
2021/12/02 06:59:47;;;;;;;3.58;0.30;;;2.20;99.90;;;;;;5117124;28;20047;-75
2021/12/02 07:02:13;;;;;;;0.40;0.40;;;3.00;99.90;;;;;;5113695;28;20441;-75
2021/12/02 07:04:39;;;;;;;1.30;0.40;;;2.20;99.90;;;;;;5116985;28;20046;-75
2021/12/02 07:07:05;;;;;;;5.75;0.50;;;2.20;99.90;;;;;;5116751;28;20469;-76
2021/12/02 07:09:31;;;;;;;2.50;0.40;;;2.20;99.90;;;;;;5115796;28;20130;-76
2021/12/02 07:11:56;;;;;;;3.78;0.47;;;2.20;99.90;;;;;;5116973;28;20036;-76
2021/12/02 07:14:25;;;;;;;2.70;0.50;;;2.20;99.90;;;;;;5130637;27;20487;-76
2021/12/02 07:16:51;;;;;;;1.65;0.40;;;2.20;99.90;;;;;;5114262;28;20035;-76
2021/12/02 07:19:17;;;;;;;1.15;0.30;;;2.30;99.90;;;;;;5116018;28;20044;-75
2021/12/02 07:21:44;;;;;;;2.58;0.38;;;2.30;99.90;;;;;;5116295;28;20469;-76
2021/12/02 07:24:15;;;;;;;0.82;0.70;;;2.80;99.90;;;;;;5114453;28;20097;-76
2021/12/02 07:26:43;;;;;;;2.00;0.40;;;2.30;99.90;;;;;;5116590;28;20054;-76
2021/12/02 07:29:12;;;;;;;3.58;2.60;;;2.30;99.90;;;;;;5116404;28;20096;-75
2021/12/02 07:31:40;;;;;;;2.15;0.47;;;3.10;99.90;;;;;;5115655;28;20039;-76
2021/12/02 07:34:07;;;;;;;3.83;1.02;;;2.30;99.90;;;;;;5116234;28;20051;-76
2021/12/02 07:36:34;;;;;;;6.60;0.73;;;2.50;99.90;;;;;;5115154;28;20054;-76
2021/12/02 07:39:01;;;;;;;1.98;0.60;;;2.30;99.90;;;;;;5114720;28;20054;-76
2021/12/02 07:41:27;;;;;;;1.15;0.60;;;2.30;99.90;;;;;;5116125;28;20047;-76
2021/12/02 07:43:53;;;;;;;3.05;1.40;;;2.30;99.90;;;;;;5115298;28;20046;-76
2021/12/02 07:46:18;;;;;;;4.22;0.70;;;2.30;99.90;;;;;;5116027;28;20035;-76
2021/12/02 07:48:44;;;;;;;3.08;0.50;;;2.20;99.90;;;;;;5115588;28;20478;-76
2021/12/02 07:51:16;;;;;;;1.50;0.47;;;2.20;99.90;;;;;;5115095;28;20047;-76
2021/12/02 07:53:44;;;;;;;2.13;0.60;;;2.20;99.90;;;;;;5114584;28;20048;-76
2021/12/02 07:56:13;;;;;;;2.60;0.60;;;2.40;99.90;;;;;;5114657;28;20043;-76
2021/12/02 07:58:41;;;;;;;1.83;0.40;;;2.40;99.90;;;;;;5113303;28;20031;-76
2021/12/02 08:01:08;;;;;;;3.58;0.50;;;2.10;99.90;;;;;;5115387;28;20043;-76
2021/12/02 08:03:34;;;;;;;3.40;0.50;;;2.10;99.90;;;;;;5115261;28;20063;-76
2021/12/02 08:06:00;;;;;;;4.07;1.15;;;2.00;99.90;;;;;;5114785;28;20122;-76
2021/12/02 08:08:26;;;;;;;2.08;0.93;;;2.00;99.90;;;;;;5114083;28;20051;-76
2021/12/02 08:10:52;;;;;;;2.45;0.52;;;2.00;99.90;;;;;;5114102;28;20080;-76
2021/12/02 08:13:20;;;;;;;2.03;0.73;;;1.90;99.90;;;;;;5114685;27;20043;-77
2021/12/02 08:15:45;;;;;;;3.63;0.80;;;1.90;99.90;;;;;;5115527;28;20046;-77
2021/12/02 08:18:11;;;;;;;3.45;0.90;;;1.90;99.90;;;;;;5115231;28;20044;-76
2021/12/02 08:20:37;;;;;;;3.13;0.75;;;1.90;99.90;;;;;;5114677;28;20035;-76
2021/12/02 08:23:04;;;;;;;2.78;0.55;;;1.80;99.90;;;;;;5114462;28;20113;-76
2021/12/02 08:25:31;;;;;;;7.97;0.95;;;1.80;99.90;;;;;;5114975;28;20051;-76
2021/12/02 08:27:59;;;;;;;8.55;0.68;;;1.80;99.90;;;;;;5114362;28;20074;-76
2021/12/02 08:30:27;;;;;;;3.58;1.10;;;1.90;99.90;;;;;;5115082;28;20118;-76
2021/12/02 08:32:55;;;;;;;6.47;2.22;;;1.80;99.90;;;;;;5115273;28;20515;-76
2021/12/02 08:35:22;;;;;;;1.27;0.70;;;1.80;99.90;;;;;;5113442;28;20043;-76
2021/12/02 08:37:50;;;;;;;6.15;0.98;;;1.80;99.90;;;;;;5113820;28;20551;-76
2021/12/02 08:40:29;;;;;;;2.30;0.70;;;1.80;99.90;;;;;;5113905;27;20048;-76
2021/12/02 08:42:55;;;;;;;5.15;0.77;;;1.90;99.90;;;;;;5114867;27;20044;-76
2021/12/02 08:45:21;;;;;;;5.25;0.80;;;1.90;99.90;;;;;;5113855;28;20044;-76
2021/12/02 08:47:47;;;;;;;1.92;0.70;;;2.00;99.90;;;;;;5114175;28;20046;-76
2021/12/02 08:50:19;;;;;;;3.88;0.80;;;1.90;99.90;;;;;;5114731;28;20051;-76
2021/12/02 08:52:47;;;;;;;4.95;0.90;;;2.30;99.90;;;;;;5114349;28;20521;-76
2021/12/02 08:55:14;;;;;;;1.00;0.55;;;2.10;99.90;;;;;;5113694;28;20042;-76
2021/12/02 08:57:40;;;;;;;2.38;0.70;;;2.20;99.90;;;;;;5113627;28;20056;-76
2021/12/02 09:00:09;;;;;;;6.85;0.98;;;2.30;99.90;;;;;;5114695;27;20505;-76
2021/12/02 09:02:35;;;;;;;3.97;1.35;;;2.40;99.90;;;;;;5113951;28;20035;-76
2021/12/02 09:05:01;;;;;;;2.55;0.57;;;3.30;99.90;;;;;;5114134;28;20398;-76
2021/12/02 09:07:27;;;;;;;1.48;0.40;;;2.50;99.90;;;;;;5114470;28;20061;-75
2021/12/02 09:09:52;;;;;;;2.28;0.70;;;2.60;99.90;;;;;;5120284;27;20039;-76
2021/12/02 09:12:18;;;;;;;4.43;0.73;;;2.60;99.90;;;;;;5134743;27;20035;-76
2021/12/02 09:14:44;;;;;;;2.35;0.60;;;2.70;99.90;;;;;;5135215;27;20043;-76
2021/12/02 09:17:10;;;;;;;3.25;0.70;;;2.70;99.90;;;;;;5129407;27;20044;-76
2021/12/02 09:19:35;;;;;;;2.38;0.70;;;2.70;99.90;;;;;;5120444;27;20101;-76
2021/12/02 09:22:03;;;;;;;4.95;0.50;;;2.70;99.90;;;;;;5114169;28;20407;-76
2021/12/02 09:24:28;;;;;;;1.45;0.50;;;2.70;99.90;;;;;;5113037;28;20075;-76
2021/12/02 09:26:55;;;;;;;5.38;0.70;;;2.70;99.90;;;;;;5112590;28;20478;-76
2021/12/02 09:29:22;;;;;;;2.97;0.77;;;2.90;99.90;;;;;;5113374;28;20045;-76
2021/12/02 09:31:49;;;;;;;1.45;0.60;;;2.70;99.90;;;;;;5114068;28;20478;-76
2021/12/02 09:34:15;;;;;;;2.55;0.50;;;2.70;99.90;;;;;;5114120;28;20035;-76
2021/12/02 09:36:41;;;;;;;4.32;1.35;;;2.80;99.90;;;;;;5111520;28;20048;-77
2021/12/02 09:39:10;;;;;;;3.00;0.60;;;2.90;99.90;;;;;;5116844;27;20039;-76
2021/12/02 09:41:36;;;;;;;3.13;0.60;;;2.80;99.90;;;;;;5125810;27;20056;-77
2021/12/02 09:44:03;;;;;;;2.65;0.70;;;2.80;99.90;;;;;;5112039;27;20128;-76
2021/12/02 09:46:28;;;;;;;5.35;0.60;;;2.70;99.90;;;;;;5113758;28;20052;-77
2021/12/02 09:48:57;;;;;;;6.55;0.77;;;2.70;99.90;;;;;;5113697;28;20048;-77
2021/12/02 09:51:26;;;;;;;1.50;0.60;;;2.70;99.90;;;;;;5111704;28;20047;-77
2021/12/02 09:56:25;;;;;;;3.78;0.75;;;2.80;99.90;;;;;;5112292;28;20047;-76
2021/12/02 09:58:54;;;;;;;2.28;0.75;;;2.90;99.90;;;;;;5112539;28;20043;-76
2021/12/02 10:01:23;;;;;;;2.72;0.60;;;3.10;99.90;;;;;;5113079;28;20113;-76
2021/12/02 10:03:57;;;;;;;4.63;0.70;;;3.20;99.90;;;;;;5112072;28;20548;-76
2021/12/02 10:06:29;;;;;;;1.85;0.60;;;3.30;99.90;;;;;;5112925;28;20498;-76
2021/12/02 10:09:07;;;;;;;3.88;0.70;;;3.30;99.90;;;;;;5111983;28;20051;-76
2021/12/02 10:14:17;;;;;;;2.88;0.90;;;3.30;99.90;;;;;;5113683;28;20062;-76
2021/12/02 10:16:45;;;;;;;3.45;1.02;;;3.30;99.90;;;;;;5114823;28;20052;-76
2021/12/02 10:19:20;;;;;;;3.55;0.80;;;3.30;99.90;;;;;;5115928;28;20050;-76
2021/12/02 10:22:04;;;;;;;4.43;0.95;;;3.40;99.90;;;;;;5116436;28;20054;-76
2021/12/02 10:24:30;;;;;;;3.40;1.00;;;3.50;99.90;;;;;;5116308;28;20440;-77
2021/12/02 10:27:04;;;;;;;3.70;0.70;;;3.60;99.90;;;;;;5115185;28;20047;-76
2021/12/02 10:29:35;;;;;;;3.93;0.77;;;3.80;99.90;;;;;;5117953;28;20126;-77
2021/12/02 10:32:21;;;;;;;3.03;0.70;;;3.90;99.90;;;;;;5117828;28;20277;-77
2021/12/02 10:35:01;;;;;;;3.40;0.90;;;4.00;99.90;;;;;;5116816;28;20098;-76
2021/12/02 10:37:32;;;;;;;5.22;1.50;;;4.00;99.90;;;;;;5117480;28;20083;-76
2021/12/02 10:40:00;;;;;;;3.63;1.25;;;4.10;99.90;;;;;;5115821;28;20465;-76
2021/12/02 10:42:27;;;;;;;1.70;1.02;;;4.10;99.90;;;;;;5115185;28;20048;-77
2021/12/02 10:44:57;;;;;;;3.78;1.05;;;4.00;99.90;;;;;;5117021;28;20048;-78
2021/12/02 10:47:24;;;;;;;3.35;0.98;;;3.90;99.90;;;;;;5115897;28;20039;-77
2021/12/02 10:49:56;;;;;;;4.68;1.00;;;3.70;99.90;;;;;;5117040;28;20100;-76
2021/12/02 10:52:33;;;;;;;2.40;0.75;;;3.50;99.90;;;;;;5117261;28;20126;-77
2021/12/02 10:55:10;;;;;;;2.30;0.88;;;3.40;99.90;;;;;;5116157;28;20039;-76
2021/12/02 10:57:44;;;;;;;3.95;0.82;;;3.40;99.90;;;;;;5117149;28;20035;-77
2021/12/02 11:00:16;;;;;;;2.70;1.27;;;3.30;99.90;;;;;;5117097;28;20155;-77
2021/12/02 11:02:53;;;;;;;2.80;0.70;;;3.30;99.90;;;;;;5114948;28;20154;-77
2021/12/02 11:05:24;;;;;;;1.52;0.70;;;3.30;99.90;;;;;;5116808;28;20094;-77
2021/12/02 11:07:57;;;;;;;2.22;0.50;;;3.30;99.90;;;;;;5115991;28;20043;-77
2021/12/02 11:10:24;;;;;;;2.50;0.60;;;3.30;99.90;;;;;;5115192;28;20487;-77
2021/12/02 11:12:52;;;;;;;1.38;0.57;;;3.20;99.90;;;;;;5115666;28;20051;-77
2021/12/02 11:15:29;;;;;;;3.55;0.70;;;3.10;99.90;;;;;;5116084;27;20498;-77
2021/12/02 11:18:10;;;;;;;2.95;0.65;;;3.10;99.90;;;;;;5116693;28;20044;-77
2021/12/02 11:20:40;;;;;;;5.13;0.90;;;3.00;99.90;;;;;;5113913;28;20051;-77
2021/12/02 11:23:07;;;;;;;3.28;0.52;;;3.00;99.90;;;;;;5115472;28;20582;-76
2021/12/02 11:25:39;;;;;;;2.70;0.80;;;3.20;99.90;;;;;;5116185;28;20490;-77
2021/12/02 11:28:09;;;;;;;1.65;0.60;;;3.00;99.90;;;;;;5115332;28;20054;-77
2021/12/02 11:30:38;;;;;;;2.90;0.80;;;3.10;99.90;;;;;;5115239;28;20039;-75
2021/12/02 11:33:09;;;;;;;2.25;0.60;;;3.30;99.90;;;;;;5114576;28;20043;-76
2021/12/02 11:35:44;;;;;;;2.28;0.90;;;3.40;99.90;;;;;;5116165;27;20056;-76
2021/12/02 11:38:17;;;;;;;5.22;0.60;;;3.60;99.90;;;;;;5115204;28;20048;-77
2021/12/02 11:40:48;;;;;;;1.02;0.63;;;3.50;99.90;;;;;;5114735;28;20055;-76
2021/12/02 11:43:21;;;;;;;1.38;0.70;;;3.40;99.90;;;;;;5115479;28;20523;-77
2021/12/02 11:45:49;;;;;;;4.80;1.55;;;3.20;99.90;;;;;;5116148;28;20117;-76
2021/12/02 11:48:20;;;;;;;6.93;1.48;;;3.00;99.90;;;;;;5114059;28;20517;-76
2021/12/02 11:50:49;;;;;;;4.53;1.42;;;2.80;99.90;;;;;;5115465;28;20372;-77
2021/12/02 11:53:21;;;;;;;6.82;1.02;;;2.70;99.90;;;;;;5115950;28;20572;-76
2021/12/02 11:55:48;;;;;;;2.17;0.90;;;2.60;99.90;;;;;;5115760;28;20043;-77
2021/12/02 11:58:14;;;;;;;1.98;1.00;;;2.50;99.90;;;;;;5113281;28;20035;-77
2021/12/02 12:00:39;;;;;;;1.52;0.60;;;2.60;99.90;;;;;;5114821;28;20040;-77
2021/12/02 12:03:28;;;;;;;3.22;0.85;;;2.30;99.90;;;;;;5114825;28;20036;-77
2021/12/02 12:05:56;;;;;;;1.08;0.57;;;2.30;99.90;;;;;;5112422;28;20071;-77
2021/12/02 12:08:36;;;;;;;3.40;1.15;;;2.30;99.90;;;;;;5114205;28;20514;-77
2021/12/02 12:11:23;;;;;;;1.20;0.57;;;2.30;99.90;;;;;;5113355;28;20100;-77
2021/12/02 12:13:57;;;;;;;1.05;0.50;;;2.30;99.90;;;;;;5115085;28;20047;-77
2021/12/02 12:16:27;;;;;;;1.88;0.50;;;2.30;99.90;;;;;;5115690;28;20043;-77
2021/12/02 12:18:57;;;;;;;1.65;0.50;;;2.40;99.90;;;;;;5114592;28;20071;-77
2021/12/02 12:21:38;;;;;;;2.45;0.60;;;3.30;99.90;;;;;;5115171;28;20047;-77
2021/12/02 12:24:05;;;;;;;0.35;0.30;;;2.50;99.90;;;;;;5114034;28;20148;-77
2021/12/02 12:26:37;;;;;;;2.60;0.60;;;2.50;99.90;;;;;;5113551;28;20051;-77
2021/12/02 12:29:06;;;;;;;1.17;0.40;;;2.50;99.90;;;;;;5114020;28;20054;-77
2021/12/02 12:31:36;;;;;;;1.65;0.40;;;2.50;99.90;;;;;;5114208;28;20049;-76
2021/12/02 12:34:38;;;;;;;1.30;0.60;;;2.60;99.90;;;;;;5113390;28;20056;-77
2021/12/02 12:37:21;;;;;;;2.28;0.40;;;2.60;99.90;;;;;;5113491;28;20127;-77
2021/12/02 12:40:36;;;;;;;0.55;0.40;;;2.80;99.90;;;;;;5111881;28;20499;-77
2021/12/02 12:43:02;;;;;;;0.57;0.50;;;2.70;99.90;;;;;;5083499;28;20056;-77
2021/12/02 12:45:38;;;;;;;1.58;0.65;;;2.70;99.90;;;;;;5093142;28;20093;-77
2021/12/02 12:48:06;;;;;;;2.70;0.65;;;2.80;99.90;;;;;;5092727;28;20403;-77
2021/12/02 12:50:36;;;;;;;2.08;0.68;;;2.80;99.90;;;;;;5094540;28;20094;-76
2021/12/02 12:53:05;;;;;;;2.75;0.60;;;2.90;99.90;;;;;;5094180;28;20098;-76
2021/12/02 12:55:40;;;;;;;1.17;0.82;;;3.00;99.90;;;;;;5108300;28;20043;-76
2021/12/02 12:58:13;;;;;;;1.35;0.65;;;3.00;99.90;;;;;;5114586;28;20040;-76
2021/12/02 13:00:46;;;;;;;1.00;0.65;;;3.00;99.90;;;;;;5109462;28;20511;-76
2021/12/02 13:03:29;;;;;;;1.98;0.55;;;3.10;99.90;;;;;;5101408;28;20043;-78
2021/12/02 13:06:10;;;;;;;0.50;0.30;;;3.10;99.90;;;;;;5113295;28;20054;-77
2021/12/02 13:08:57;;;;;;;3.97;1.42;;;3.20;99.90;;;;;;5112673;28;20051;-77
2021/12/02 13:11:30;;;;;;;3.05;0.47;;;3.10;99.90;;;;;;5092850;28;20063;-77
2021/12/02 13:13:57;;;;;;;1.90;0.55;;;3.10;99.90;;;;;;5094118;28;20060;-77
2021/12/02 13:16:23;;;;;;;1.10;0.43;;;3.00;99.90;;;;;;5093241;28;20036;-76
2021/12/02 13:18:50;;;;;;;1.88;0.47;;;3.10;99.90;;;;;;5093052;28;20509;-77
2021/12/02 13:21:31;;;;;;;1.80;0.88;;;2.90;99.90;;;;;;5092275;28;20502;-77
2021/12/02 13:24:07;;;;;;;0.98;0.40;;;2.80;99.90;;;;;;5094251;28;20052;-77
2021/12/02 13:26:35;;;;;;;1.40;0.47;;;2.90;99.90;;;;;;5112795;28;20093;-77